American Freedom — KAFK — position and weather

sailwx.info

Track history (hours):
 
Tides and Currents Weather Stations Pressure Air Temp Water Temp Dewpoint Dewpoint Depression Visibility Wind Speed Wind Dir Waves Ship Positions

American Freedom

Owner: Crowley Petroleum Services, Jacksonville, FL. More information available from US FCC via Universal Licensing System and Coast Guard Vessel Documentation Center.

Last reported at 2017-Nov-17 08:16 UTC. Time now 2017-Nov-22 20:30 UTC.
Position N 29°22' W 094°53'.

Length 183 m; draft 8.6 m.

Type: Tanker. MMSI: 369042000.

Date/timePositionNaut miles runAvg speedWind from/ knotsBaromVisibWave heightAir tempDewpointWater temp
2017-Nov-17 08:16N 29°22' W 094°53'0 0.6
2017-Nov-17 08:00N 29°23' W 094°53'4 7.6
2017-Nov-17 07:29N 29°22' W 094°49'18 3.2
2017-Nov-17 01:59N 29°17' W 094°30'  
2017-Nov-12 03:29N 25°11' W 080°06'4 7.6
2017-Nov-12 03:00N 25°14' W 080°04'4 7.6
2017-Nov-12 02:30N 25°18' W 080°03'3 6.7
2017-Nov-12 02:00N 25°21' W 080°01'3 6.3
2017-Nov-12 01:30N 25°24' W 080°01'3 6.6
2017-Nov-12 01:01N 25°27' W 080°01'4 7.1
2017-Nov-12 00:30N 25°31' W 080°00'4 7.2
2017-Nov-12 00:00N 25°35' W 080°00'4 7.3
2017-Nov-11 23:31N 25°38' W 079°60'4 7.4
2017-Nov-11 23:00N 25°42' W 079°60'4 7.6
2017-Nov-11 22:31N 25°46' W 079°60'4 7.7
2017-Nov-11 22:00N 25°50' W 079°60'4 8.1
2017-Nov-11 21:31N 25°54' W 079°60'4 8.5
2017-Nov-11 21:00N 25°58' W 080°00'4 8.5
2017-Nov-11 20:31N 26°02' W 080°01'4 8.7
2017-Nov-11 20:00N 26°05' W 080°04'3 5.4
2017-Nov-11 19:29N 26°06' W 080°07'0 0.0
2017-Nov-11 18:59N 26°06' W 080°07'0 0.0
2017-Nov-11 18:29N 26°06' W 080°07'0 0.0
2017-Nov-11 17:59N 26°06' W 080°07'0 0.0
2017-Nov-11 17:29N 26°06' W 080°07'0 0.0
2017-Nov-11 16:59N 26°06' W 080°07'0 0.0
2017-Nov-11 16:29N 26°06' W 080°07'0 0.0
2017-Nov-11 15:59N 26°06' W 080°07'0 0.0
2017-Nov-11 15:29N 26°06' W 080°07'0 0.0
2017-Nov-11 14:58N 26°06' W 080°07'0 0.0
2017-Nov-11 14:29N 26°06' W 080°07'0 0.0
2017-Nov-11 13:59N 26°06' W 080°07'0 0.0
2017-Nov-11 13:29N 26°06' W 080°07'0 0.0
2017-Nov-11 12:58N 26°06' W 080°07'0 0.0
2017-Nov-11 12:29N 26°06' W 080°07'0 0.0
2017-Nov-11 11:50N 26°06' W 080°07'0 0.0
2017-Nov-11 11:28N 26°06' W 080°07'0 0.0
2017-Nov-11 10:53N 26°06' W 080°07'0 0.0
2017-Nov-11 10:23N 26°06' W 080°07'0 0.0
2017-Nov-11 09:53N 26°06' W 080°07'0 0.0
2017-Nov-11 09:23N 26°06' W 080°07'0 0.0
2017-Nov-11 08:53N 26°06' W 080°07'0 0.0
2017-Nov-11 08:23N 26°06' W 080°07'0 0.0
2017-Nov-11 07:56N 26°06' W 080°07'0 0.0
2017-Nov-11 07:26N 26°06' W 080°07'0 0.0
2017-Nov-11 06:56N 26°06' W 080°07'0 0.0
2017-Nov-11 06:26N 26°06' W 080°07'0 0.0
2017-Nov-11 05:56N 26°06' W 080°07'0 0.0
2017-Nov-11 05:29N 26°06' W 080°07'0 0.0
2017-Nov-11 04:59N 26°06' W 080°07'0 0.0
2017-Nov-11 04:29N 26°06' W 080°07'0 0.0
2017-Nov-11 03:59N 26°06' W 080°07'0 0.0
2017-Nov-11 03:29N 26°06' W 080°07'0 0.0
2017-Nov-11 02:59N 26°06' W 080°07'0 0.0
2017-Nov-11 02:29N 26°06' W 080°07'0 0.0
2017-Nov-11 01:59N 26°06' W 080°07'0 0.0
2017-Nov-11 01:29N 26°06' W 080°07'0 0.0
2017-Nov-11 00:59N 26°06' W 080°07'0 0.0
2017-Nov-11 00:29N 26°06' W 080°07'0 0.0
2017-Nov-10 23:59N 26°06' W 080°07'0 0.0
2017-Nov-10 23:29N 26°06' W 080°07'0 0.0
2017-Nov-10 22:59N 26°06' W 080°07'0 0.0
2017-Nov-10 22:29N 26°06' W 080°07'0 0.0
2017-Nov-10 21:59N 26°06' W 080°07'0 0.0
2017-Nov-10 21:28N 26°06' W 080°07'0 0.0
2017-Nov-10 20:59N 26°06' W 080°07'0 0.0
2017-Nov-10 20:29N 26°06' W 080°07'0 0.0
2017-Nov-10 19:53N 26°06' W 080°07'0 0.0
2017-Nov-10 19:29N 26°06' W 080°07'0 0.0
2017-Nov-10 18:53N 26°06' W 080°07'0 0.0
2017-Nov-10 18:29N 26°06' W 080°07'0 0.0
2017-Nov-10 17:59N 26°06' W 080°07'0 0.0
2017-Nov-10 17:29N 26°06' W 080°07'0 0.0
2017-Nov-10 16:59N 26°06' W 080°07'0 0.0
2017-Nov-10 16:28N 26°06' W 080°07'0 0.0
2017-Nov-10 15:59N 26°06' W 080°07'0 0.0
2017-Nov-10 15:28N 26°06' W 080°07'0 0.0
2017-Nov-10 14:58N 26°06' W 080°07'0 0.0
2017-Nov-10 14:29N 26°06' W 080°07'0 0.0
2017-Nov-10 13:59N 26°06' W 080°07'0 0.0
2017-Nov-10 13:29N 26°06' W 080°07'0 0.0
2017-Nov-10 12:59N 26°06' W 080°07'0 0.0
2017-Nov-10 12:29N 26°06' W 080°07'0 0.0
2017-Nov-10 11:59N 26°06' W 080°07'0 0.0
2017-Nov-10 11:29N 26°06' W 080°07'0 0.0
2017-Nov-10 10:59N 26°06' W 080°07'0 0.0
2017-Nov-10 10:28N 26°06' W 080°07'0 0.0
2017-Nov-10 09:59N 26°06' W 080°07'0 0.0
2017-Nov-10 09:29N 26°06' W 080°07'0 0.0
2017-Nov-10 08:59N 26°06' W 080°07'0 0.0
2017-Nov-10 08:28N 26°06' W 080°07'0 0.6
2017-Nov-10 08:01N 26°06' W 080°07'3 6.3
2017-Nov-10 07:31N 26°06' W 080°04'2 4.3
2017-Nov-10 07:01N 26°06' W 080°01'1 2.2
2017-Nov-10 06:31N 26°05' W 080°00'3 6.2
2017-Nov-10 06:00N 26°02' W 079°59'713.6
2017-Nov-10 05:30N 25°56' W 079°56'816.4
2017-Nov-10 05:00N 25°48' W 079°56'816.3
2017-Nov-10 04:30N 25°40' W 079°57'816.3
2017-Nov-10 04:00N 25°32' W 079°57'816.5
2017-Nov-10 03:30N 25°23' W 079°57'  
Track history (hours):
 
Tides and Currents Weather Stations Pressure Air Temp Water Temp Dewpoint Dewpoint Depression Visibility Wind Speed Wind Dir Waves Ship Positions

American Freedom

Owner: Crowley Petroleum Services, Jacksonville, FL. More information available from US FCC via Universal Licensing System and Coast Guard Vessel Documentation Center.

Last reported at 2017-Nov-17 08:16 UTC. Time now 2017-Nov-22 20:30 UTC.
Position N 29°22' W 094°53'.

Length 183 m; draft 8.6 m.

Type: Tanker. MMSI: 369042000.

Date/timePositionNaut miles runAvg speedWind from/ knotsBaromVisibWave heightAir tempDewpointWater temp
2017-Nov-17 08:16N 29°22' W 094°53'0 0.6
2017-Nov-17 08:00N 29°23' W 094°53'4 7.6
2017-Nov-17 07:29N 29°22' W 094°49'18 3.2
2017-Nov-17 01:59N 29°17' W 094°30'  
2017-Nov-12 03:29N 25°11' W 080°06'4 7.6
2017-Nov-12 03:00N 25°14' W 080°04'4 7.6
2017-Nov-12 02:30N 25°18' W 080°03'3 6.7
2017-Nov-12 02:00N 25°21' W 080°01'3 6.3
2017-Nov-12 01:30N 25°24' W 080°01'3 6.6
2017-Nov-12 01:01N 25°27' W 080°01'4 7.1
2017-Nov-12 00:30N 25°31' W 080°00'4 7.2
2017-Nov-12 00:00N 25°35' W 080°00'4 7.3
2017-Nov-11 23:31N 25°38' W 079°60'4 7.4
2017-Nov-11 23:00N 25°42' W 079°60'4 7.6
2017-Nov-11 22:31N 25°46' W 079°60'4 7.7
2017-Nov-11 22:00N 25°50' W 079°60'4 8.1
2017-Nov-11 21:31N 25°54' W 079°60'4 8.5
2017-Nov-11 21:00N 25°58' W 080°00'4 8.5
2017-Nov-11 20:31N 26°02' W 080°01'4 8.7
2017-Nov-11 20:00N 26°05' W 080°04'3 5.4
2017-Nov-11 19:29N 26°06' W 080°07'0 0.0
2017-Nov-11 18:59N 26°06' W 080°07'0 0.0
2017-Nov-11 18:29N 26°06' W 080°07'0 0.0
2017-Nov-11 17:59N 26°06' W 080°07'0 0.0
2017-Nov-11 17:29N 26°06' W 080°07'0 0.0
2017-Nov-11 16:59N 26°06' W 080°07'0 0.0
2017-Nov-11 16:29N 26°06' W 080°07'0 0.0
2017-Nov-11 15:59N 26°06' W 080°07'0 0.0
2017-Nov-11 15:29N 26°06' W 080°07'0 0.0
2017-Nov-11 14:58N 26°06' W 080°07'0 0.0
2017-Nov-11 14:29N 26°06' W 080°07'0 0.0
2017-Nov-11 13:59N 26°06' W 080°07'0 0.0
2017-Nov-11 13:29N 26°06' W 080°07'0 0.0
2017-Nov-11 12:58N 26°06' W 080°07'0 0.0
2017-Nov-11 12:29N 26°06' W 080°07'0 0.0
2017-Nov-11 11:50N 26°06' W 080°07'0 0.0
2017-Nov-11 11:28N 26°06' W 080°07'0 0.0
2017-Nov-11 10:53N 26°06' W 080°07'0 0.0
2017-Nov-11 10:23N 26°06' W 080°07'0 0.0
2017-Nov-11 09:53N 26°06' W 080°07'0 0.0
2017-Nov-11 09:23N 26°06' W 080°07'0 0.0
2017-Nov-11 08:53N 26°06' W 080°07'0 0.0
2017-Nov-11 08:23N 26°06' W 080°07'0 0.0
2017-Nov-11 07:56N 26°06' W 080°07'0 0.0
2017-Nov-11 07:26N 26°06' W 080°07'0 0.0
2017-Nov-11 06:56N 26°06' W 080°07'0 0.0
2017-Nov-11 06:26N 26°06' W 080°07'0 0.0
2017-Nov-11 05:56N 26°06' W 080°07'0 0.0
2017-Nov-11 05:29N 26°06' W 080°07'0 0.0
2017-Nov-11 04:59N 26°06' W 080°07'0 0.0
2017-Nov-11 04:29N 26°06' W 080°07'0 0.0
2017-Nov-11 03:59N 26°06' W 080°07'0 0.0
2017-Nov-11 03:29N 26°06' W 080°07'0 0.0
2017-Nov-11 02:59N 26°06' W 080°07'0 0.0
2017-Nov-11 02:29N 26°06' W 080°07'0 0.0
2017-Nov-11 01:59N 26°06' W 080°07'0 0.0
2017-Nov-11 01:29N 26°06' W 080°07'0 0.0
2017-Nov-11 00:59N 26°06' W 080°07'0 0.0
2017-Nov-11 00:29N 26°06' W 080°07'0 0.0
2017-Nov-10 23:59N 26°06' W 080°07'0 0.0
2017-Nov-10 23:29N 26°06' W 080°07'0 0.0
2017-Nov-10 22:59N 26°06' W 080°07'0 0.0
2017-Nov-10 22:29N 26°06' W 080°07'0 0.0
2017-Nov-10 21:59N 26°06' W 080°07'0 0.0
2017-Nov-10 21:28N 26°06' W 080°07'0 0.0
2017-Nov-10 20:59N 26°06' W 080°07'0 0.0
2017-Nov-10 20:29N 26°06' W 080°07'0 0.0
2017-Nov-10 19:53N 26°06' W 080°07'0 0.0
2017-Nov-10 19:29N 26°06' W 080°07'0 0.0
2017-Nov-10 18:53N 26°06' W 080°07'0 0.0
2017-Nov-10 18:29N 26°06' W 080°07'0 0.0
2017-Nov-10 17:59N 26°06' W 080°07'0 0.0
2017-Nov-10 17:29N 26°06' W 080°07'0 0.0
2017-Nov-10 16:59N 26°06' W 080°07'0 0.0
2017-Nov-10 16:28N 26°06' W 080°07'0 0.0
2017-Nov-10 15:59N 26°06' W 080°07'0 0.0
2017-Nov-10 15:28N 26°06' W 080°07'0 0.0
2017-Nov-10 14:58N 26°06' W 080°07'0 0.0
2017-Nov-10 14:29N 26°06' W 080°07'0 0.0
2017-Nov-10 13:59N 26°06' W 080°07'0 0.0
2017-Nov-10 13:29N 26°06' W 080°07'0 0.0
2017-Nov-10 12:59N 26°06' W 080°07'0 0.0
2017-Nov-10 12:29N 26°06' W 080°07'0 0.0
2017-Nov-10 11:59N 26°06' W 080°07'0 0.0
2017-Nov-10 11:29N 26°06' W 080°07'0 0.0
2017-Nov-10 10:59N 26°06' W 080°07'0 0.0
2017-Nov-10 10:28N 26°06' W 080°07'0 0.0
2017-Nov-10 09:59N 26°06' W 080°07'0 0.0
2017-Nov-10 09:29N 26°06' W 080°07'0 0.0
2017-Nov-10 08:59N 26°06' W 080°07'0 0.0
2017-Nov-10 08:28N 26°06' W 080°07'0 0.6
2017-Nov-10 08:01N 26°06' W 080°07'3 6.3
2017-Nov-10 07:31N 26°06' W 080°04'2 4.3
2017-Nov-10 07:01N 26°06' W 080°01'1 2.2
2017-Nov-10 06:31N 26°05' W 080°00'3 6.2
2017-Nov-10 06:00N 26°02' W 079°59'713.6
2017-Nov-10 05:30N 25°56' W 079°56'816.4
2017-Nov-10 05:00N 25°48' W 079°56'816.3
2017-Nov-10 04:30N 25°40' W 079°57'816.3
2017-Nov-10 04:00N 25°32' W 079°57'816.5
2017-Nov-10 03:30N 25°23' W 079°57'  

Dump ship's entire track history